sensor_id;sensor_type;location;lat;lon;timestamp;P1;durP1;ratioP1;P2;durP2;ratioP2
8594;SDS011;4335;48.860;9.198;2023-05-10T00:00:26;1.53;;;1.00;;
8594;SDS011;4335;48.860;9.198;2023-05-10T00:02:57;0.80;;;0.80;;
8594;SDS011;4335;48.860;9.198;2023-05-10T00:05:24;1.37;;;0.90;;
8594;SDS011;4335;48.860;9.198;2023-05-10T00:07:51;0.80;;;0.80;;
8594;SDS011;4335;48.860;9.198;2023-05-10T00:10:22;0.70;;;0.70;;
8594;SDS011;4335;48.860;9.198;2023-05-10T00:12:51;0.60;;;0.60;;
8594;SDS011;4335;48.860;9.198;2023-05-10T00:15:18;0.97;;;0.70;;
8594;SDS011;4335;48.860;9.198;2023-05-10T00:17:46;0.73;;;0.73;;
8594;SDS011;4335;48.860;9.198;2023-05-10T00:20:13;1.43;;;0.90;;
8594;SDS011;4335;48.860;9.198;2023-05-10T00:22:41;1.57;;;0.90;;
8594;SDS011;4335;48.860;9.198;2023-05-10T00:25:08;1.10;;;1.00;;
8594;SDS011;4335;48.860;9.198;2023-05-10T00:27:39;1.73;;;1.10;;
8594;SDS011;4335;48.860;9.198;2023-05-10T00:30:11;1.17;;;0.83;;
8594;SDS011;4335;48.860;9.198;2023-05-10T00:32:38;2.67;;;1.10;;
8594;SDS011;4335;48.860;9.198;2023-05-10T00:35:09;2.07;;;0.87;;
8594;SDS011;4335;48.860;9.198;2023-05-10T00:37:36;1.00;;;0.70;;
8594;SDS011;4335;48.860;9.198;2023-05-10T00:40:04;1.93;;;0.90;;
8594;SDS011;4335;48.860;9.198;2023-05-10T00:42:42;0.50;;;0.50;;
8594;SDS011;4335;48.860;9.198;2023-05-10T00:45:14;1.33;;;0.80;;
8594;SDS011;4335;48.860;9.198;2023-05-10T00:47:47;0.90;;;0.80;;
8594;SDS011;4335;48.860;9.198;2023-05-10T00:50:15;0.60;;;0.60;;
8594;SDS011;4335;48.860;9.198;2023-05-10T00:52:42;1.20;;;0.50;;
8594;SDS011;4335;48.860;9.198;2023-05-10T00:55:13;0.80;;;0.80;;
8594;SDS011;4335;48.860;9.198;2023-05-10T00:57:43;1.27;;;0.90;;
8594;SDS011;4335;48.860;9.198;2023-05-10T01:00:16;0.93;;;0.80;;
8594;SDS011;4335;48.860;9.198;2023-05-10T01:02:46;1.17;;;0.80;;
8594;SDS011;4335;48.860;9.198;2023-05-10T01:05:19;0.63;;;0.63;;
8594;SDS011;4335;48.860;9.198;2023-05-10T01:07:50;0.70;;;0.70;;
8594;SDS011;4335;48.860;9.198;2023-05-10T01:10:20;0.77;;;0.77;;
8594;SDS011;4335;48.860;9.198;2023-05-10T01:12:48;0.60;;;0.60;;
8594;SDS011;4335;48.860;9.198;2023-05-10T01:15:17;0.60;;;0.60;;
8594;SDS011;4335;48.860;9.198;2023-05-10T01:17:48;0.80;;;0.80;;
8594;SDS011;4335;48.860;9.198;2023-05-10T01:20:16;1.00;;;0.90;;
8594;SDS011;4335;48.860;9.198;2023-05-10T01:32:15;0.90;;;0.90;;
8594;SDS011;4335;48.860;9.198;2023-05-10T01:34:49;1.10;;;1.00;;
8594;SDS011;4335;48.860;9.198;2023-05-10T01:37:28;1.07;;;0.97;;
8594;SDS011;4335;48.860;9.198;2023-05-10T01:40:06;1.10;;;1.00;;
8594;SDS011;4335;48.860;9.198;2023-05-10T01:42:47;1.00;;;1.00;;
8594;SDS011;4335;48.860;9.198;2023-05-10T01:45:20;4.00;;;1.13;;
8594;SDS011;4335;48.860;9.198;2023-05-10T01:48:02;1.10;;;1.00;;
8594;SDS011;4335;48.860;9.198;2023-05-10T01:50:33;2.07;;;1.20;;
8594;SDS011;4335;48.860;9.198;2023-05-10T01:53:02;1.20;;;1.10;;
8594;SDS011;4335;48.860;9.198;2023-05-10T01:55:39;1.23;;;1.13;;
8594;SDS011;4335;48.860;9.198;2023-05-10T01:58:17;1.40;;;1.20;;
8594;SDS011;4335;48.860;9.198;2023-05-10T02:00:47;1.30;;;1.10;;
8594;SDS011;4335;48.860;9.198;2023-05-10T02:03:22;1.30;;;1.20;;
8594;SDS011;4335;48.860;9.198;2023-05-10T02:05:53;1.33;;;1.23;;
8594;SDS011;4335;48.860;9.198;2023-05-10T02:08:22;1.47;;;1.10;;
8594;SDS011;4335;48.860;9.198;2023-05-10T02:10:51;1.40;;;1.20;;
8594;SDS011;4335;48.860;9.198;2023-05-10T02:13:21;0.90;;;0.90;;
8594;SDS011;4335;48.860;9.198;2023-05-10T02:15:50;2.80;;;1.17;;
8594;SDS011;4335;48.860;9.198;2023-05-10T02:18:29;1.10;;;1.00;;
8594;SDS011;4335;48.860;9.198;2023-05-10T02:20:58;1.50;;;1.40;;
8594;SDS011;4335;48.860;9.198;2023-05-10T02:23:29;1.47;;;1.00;;
8594;SDS011;4335;48.860;9.198;2023-05-10T02:25:57;1.70;;;1.10;;
8594;SDS011;4335;48.860;9.198;2023-05-10T02:28:27;1.30;;;1.10;;
8594;SDS011;4335;48.860;9.198;2023-05-10T02:30:55;1.70;;;1.27;;
8594;SDS011;4335;48.860;9.198;2023-05-10T02:33:23;1.13;;;1.00;;
8594;SDS011;4335;48.860;9.198;2023-05-10T02:35:53;1.10;;;1.10;;
8594;SDS011;4335;48.860;9.198;2023-05-10T02:38:22;1.10;;;1.00;;
8594;SDS011;4335;48.860;9.198;2023-05-10T02:40:50;0.97;;;0.93;;
8594;SDS011;4335;48.860;9.198;2023-05-10T02:43:25;1.20;;;1.10;;
8594;SDS011;4335;48.860;9.198;2023-05-10T02:46:01;1.30;;;1.03;;
8594;SDS011;4335;48.860;9.198;2023-05-10T02:48:29;1.93;;;1.60;;
8594;SDS011;4335;48.860;9.198;2023-05-10T02:51:02;2.13;;;1.33;;
8594;SDS011;4335;48.860;9.198;2023-05-10T02:53:34;2.80;;;1.77;;
8594;SDS011;4335;48.860;9.198;2023-05-10T02:56:08;1.50;;;1.40;;
8594;SDS011;4335;48.860;9.198;2023-05-10T02:58:40;1.20;;;1.10;;
8594;SDS011;4335;48.860;9.198;2023-05-10T03:01:09;1.00;;;1.00;;
8594;SDS011;4335;48.860;9.198;2023-05-10T03:03:37;2.10;;;1.23;;
8594;SDS011;4335;48.860;9.198;2023-05-10T03:06:11;1.10;;;0.93;;
8594;SDS011;4335;48.860;9.198;2023-05-10T03:08:39;1.33;;;1.23;;
8594;SDS011;4335;48.860;9.198;2023-05-10T03:14:06;1.40;;;1.30;;
8594;SDS011;4335;48.860;9.198;2023-05-10T03:16:41;1.67;;;1.30;;
8594;SDS011;4335;48.860;9.198;2023-05-10T03:19:14;1.93;;;1.70;;
8594;SDS011;4335;48.860;9.198;2023-05-10T03:21:47;1.90;;;1.60;;
8594;SDS011;4335;48.860;9.198;2023-05-10T03:24:18;1.97;;;1.73;;
8594;SDS011;4335;48.860;9.198;2023-05-10T03:26:48;2.70;;;1.83;;
8594;SDS011;4335;48.860;9.198;2023-05-10T03:29:18;3.17;;;2.20;;
8594;SDS011;4335;48.860;9.198;2023-05-10T03:31:47;1.63;;;1.50;;
8594;SDS011;4335;48.860;9.198;2023-05-10T03:34:14;3.07;;;1.43;;
8594;SDS011;4335;48.860;9.198;2023-05-10T03:36:42;2.43;;;1.77;;
8594;SDS011;4335;48.860;9.198;2023-05-10T03:39:14;1.97;;;1.50;;
8594;SDS011;4335;48.860;9.198;2023-05-10T03:41:41;1.50;;;1.40;;
8594;SDS011;4335;48.860;9.198;2023-05-10T03:44:09;3.37;;;1.30;;
8594;SDS011;4335;48.860;9.198;2023-05-10T03:46:39;2.47;;;1.30;;
8594;SDS011;4335;48.860;9.198;2023-05-10T03:49:07;1.90;;;1.70;;
8594;SDS011;4335;48.860;9.198;2023-05-10T03:51:37;1.80;;;1.70;;
8594;SDS011;4335;48.860;9.198;2023-05-10T03:54:05;2.73;;;1.63;;
8594;SDS011;4335;48.860;9.198;2023-05-10T03:56:33;1.50;;;1.40;;
8594;SDS011;4335;48.860;9.198;2023-05-10T03:59:04;2.10;;;1.77;;
8594;SDS011;4335;48.860;9.198;2023-05-10T04:01:39;2.33;;;1.90;;
8594;SDS011;4335;48.860;9.198;2023-05-10T04:04:09;2.63;;;1.80;;
8594;SDS011;4335;48.860;9.198;2023-05-10T04:06:37;3.00;;;2.10;;
8594;SDS011;4335;48.860;9.198;2023-05-10T04:09:11;2.40;;;1.90;;
8594;SDS011;4335;48.860;9.198;2023-05-10T04:11:43;3.80;;;2.10;;
8594;SDS011;4335;48.860;9.198;2023-05-10T04:14:10;2.67;;;2.00;;
8594;SDS011;4335;48.860;9.198;2023-05-10T04:16:38;1.90;;;1.80;;
8594;SDS011;4335;48.860;9.198;2023-05-10T04:19:08;3.53;;;1.60;;
8594;SDS011;4335;48.860;9.198;2023-05-10T04:21:50;3.93;;;2.20;;
8594;SDS011;4335;48.860;9.198;2023-05-10T04:24:24;3.53;;;2.23;;
8594;SDS011;4335;48.860;9.198;2023-05-10T04:26:53;2.77;;;2.27;;
8594;SDS011;4335;48.860;9.198;2023-05-10T04:29:22;2.33;;;2.13;;
8594;SDS011;4335;48.860;9.198;2023-05-10T04:31:50;4.33;;;3.47;;
8594;SDS011;4335;48.860;9.198;2023-05-10T04:34:21;2.90;;;2.33;;
8594;SDS011;4335;48.860;9.198;2023-05-10T04:36:49;4.47;;;3.30;;
8594;SDS011;4335;48.860;9.198;2023-05-10T04:39:19;5.83;;;3.37;;
8594;SDS011;4335;48.860;9.198;2023-05-10T04:41:46;3.50;;;2.30;;
8594;SDS011;4335;48.860;9.198;2023-05-10T04:44:18;2.93;;;2.43;;
8594;SDS011;4335;48.860;9.198;2023-05-10T04:46:45;3.50;;;1.87;;
8594;SDS011;4335;48.860;9.198;2023-05-10T04:49:24;1.50;;;1.40;;
8594;SDS011;4335;48.860;9.198;2023-05-10T04:51:51;1.90;;;1.70;;
8594;SDS011;4335;48.860;9.198;2023-05-10T04:54:19;2.17;;;1.80;;
8594;SDS011;4335;48.860;9.198;2023-05-10T04:56:46;1.70;;;1.27;;
8594;SDS011;4335;48.860;9.198;2023-05-10T04:59:13;2.20;;;1.50;;
8594;SDS011;4335;48.860;9.198;2023-05-10T05:01:48;1.80;;;1.70;;
8594;SDS011;4335;48.860;9.198;2023-05-10T05:04:16;2.07;;;1.90;;
8594;SDS011;4335;48.860;9.198;2023-05-10T05:06:43;1.73;;;1.13;;
8594;SDS011;4335;48.860;9.198;2023-05-10T05:09:16;2.93;;;2.13;;
8594;SDS011;4335;48.860;9.198;2023-05-10T05:11:43;2.30;;;1.80;;
8594;SDS011;4335;48.860;9.198;2023-05-10T05:14:16;3.30;;;1.53;;
8594;SDS011;4335;48.860;9.198;2023-05-10T05:16:50;3.23;;;1.60;;
8594;SDS011;4335;48.860;9.198;2023-05-10T05:19:26;2.47;;;1.60;;
8594;SDS011;4335;48.860;9.198;2023-05-10T05:21:59;3.67;;;1.57;;
8594;SDS011;4335;48.860;9.198;2023-05-10T05:24:38;2.07;;;1.40;;
8594;SDS011;4335;48.860;9.198;2023-05-10T05:27:09;1.70;;;1.60;;
8594;SDS011;4335;48.860;9.198;2023-05-10T05:29:36;4.07;;;1.47;;
8594;SDS011;4335;48.860;9.198;2023-05-10T05:32:05;2.80;;;1.20;;
8594;SDS011;4335;48.860;9.198;2023-05-10T05:34:43;2.13;;;1.50;;
8594;SDS011;4335;48.860;9.198;2023-05-10T05:37:12;1.53;;;1.23;;
8594;SDS011;4335;48.860;9.198;2023-05-10T05:39:43;2.40;;;2.20;;
8594;SDS011;4335;48.860;9.198;2023-05-10T05:42:11;1.80;;;1.70;;
8594;SDS011;4335;48.860;9.198;2023-05-10T05:44:48;2.63;;;1.90;;
8594;SDS011;4335;48.860;9.198;2023-05-10T05:47:19;1.40;;;1.30;;
8594;SDS011;4335;48.860;9.198;2023-05-10T05:49:50;1.97;;;1.60;;
8594;SDS011;4335;48.860;9.198;2023-05-10T05:52:17;2.00;;;1.40;;
8594;SDS011;4335;48.860;9.198;2023-05-10T05:54:46;1.50;;;1.30;;
8594;SDS011;4335;48.860;9.198;2023-05-10T05:57:19;1.73;;;1.50;;
8594;SDS011;4335;48.860;9.198;2023-05-10T05:59:47;2.13;;;1.87;;
8594;SDS011;4335;48.860;9.198;2023-05-10T06:02:14;2.07;;;1.80;;
8594;SDS011;4335;48.860;9.198;2023-05-10T06:04:43;1.70;;;1.60;;
8594;SDS011;4335;48.860;9.198;2023-05-10T06:07:16;2.43;;;1.23;;
8594;SDS011;4335;48.860;9.198;2023-05-10T06:09:46;2.93;;;1.67;;
8594;SDS011;4335;48.860;9.198;2023-05-10T06:12:14;2.77;;;1.90;;
8594;SDS011;4335;48.860;9.198;2023-05-10T06:14:44;2.13;;;1.70;;
8594;SDS011;4335;48.860;9.198;2023-05-10T06:17:12;4.93;;;2.00;;
8594;SDS011;4335;48.860;9.198;2023-05-10T06:19:45;2.53;;;1.87;;
8594;SDS011;4335;48.860;9.198;2023-05-10T06:22:13;2.30;;;2.07;;
8594;SDS011;4335;48.860;9.198;2023-05-10T06:24:43;4.23;;;2.07;;
8594;SDS011;4335;48.860;9.198;2023-05-10T06:27:13;1.80;;;1.50;;
8594;SDS011;4335;48.860;9.198;2023-05-10T06:29:41;5.17;;;1.80;;
8594;SDS011;4335;48.860;9.198;2023-05-10T06:32:11;2.60;;;2.00;;
8594;SDS011;4335;48.860;9.198;2023-05-10T06:34:38;4.30;;;1.80;;
8594;SDS011;4335;48.860;9.198;2023-05-10T06:37:07;2.87;;;2.20;;
8594;SDS011;4335;48.860;9.198;2023-05-10T06:39:41;3.23;;;2.33;;
8594;SDS011;4335;48.860;9.198;2023-05-10T06:42:09;4.73;;;2.17;;
8594;SDS011;4335;48.860;9.198;2023-05-10T06:44:37;2.77;;;2.43;;
8594;SDS011;4335;48.860;9.198;2023-05-10T06:47:04;2.83;;;1.80;;
8594;SDS011;4335;48.860;9.198;2023-05-10T06:49:37;3.03;;;2.60;;
8594;SDS011;4335;48.860;9.198;2023-05-10T06:52:15;3.03;;;2.00;;
8594;SDS011;4335;48.860;9.198;2023-05-10T06:54:45;2.27;;;1.57;;
8594;SDS011;4335;48.860;9.198;2023-05-10T06:57:13;3.57;;;1.60;;
8594;SDS011;4335;48.860;9.198;2023-05-10T06:59:40;2.93;;;2.00;;
8594;SDS011;4335;48.860;9.198;2023-05-10T07:02:08;3.13;;;2.00;;
8594;SDS011;4335;48.860;9.198;2023-05-10T07:04:41;2.67;;;1.73;;
8594;SDS011;4335;48.860;9.198;2023-05-10T07:07:19;2.10;;;1.50;;
8594;SDS011;4335;48.860;9.198;2023-05-10T07:09:50;1.93;;;1.73;;
8594;SDS011;4335;48.860;9.198;2023-05-10T07:12:20;3.77;;;1.90;;
8594;SDS011;4335;48.860;9.198;2023-05-10T07:14:51;2.63;;;1.53;;
8594;SDS011;4335;48.860;9.198;2023-05-10T07:17:18;2.17;;;1.47;;
8594;SDS011;4335;48.860;9.198;2023-05-10T07:19:46;3.20;;;1.40;;
8594;SDS011;4335;48.860;9.198;2023-05-10T07:22:13;1.70;;;1.60;;
8594;SDS011;4335;48.860;9.198;2023-05-10T07:24:44;1.50;;;1.40;;
8594;SDS011;4335;48.860;9.198;2023-05-10T07:27:14;1.50;;;1.30;;
8594;SDS011;4335;48.860;9.198;2023-05-10T07:29:42;2.30;;;1.47;;
8594;SDS011;4335;48.860;9.198;2023-05-10T07:32:12;1.70;;;1.60;;
8594;SDS011;4335;48.860;9.198;2023-05-10T07:34:43;1.70;;;1.40;;
8594;SDS011;4335;48.860;9.198;2023-05-10T07:37:10;2.13;;;1.80;;
8594;SDS011;4335;48.860;9.198;2023-05-10T07:39:43;1.53;;;1.27;;
8594;SDS011;4335;48.860;9.198;2023-05-10T07:42:18;2.23;;;1.40;;
8594;SDS011;4335;48.860;9.198;2023-05-10T07:44:48;2.23;;;1.20;;
8594;SDS011;4335;48.860;9.198;2023-05-10T07:47:24;1.83;;;1.10;;
8594;SDS011;4335;48.860;9.198;2023-05-10T07:49:52;1.87;;;1.20;;
8594;SDS011;4335;48.860;9.198;2023-05-10T07:52:22;1.70;;;1.50;;
8594;SDS011;4335;48.860;9.198;2023-05-10T07:54:49;1.73;;;1.10;;
8594;SDS011;4335;48.860;9.198;2023-05-10T07:57:18;1.33;;;1.23;;
8594;SDS011;4335;48.860;9.198;2023-05-10T07:59:48;1.50;;;1.30;;
8594;SDS011;4335;48.860;9.198;2023-05-10T08:02:16;3.97;;;2.30;;
8594;SDS011;4335;48.860;9.198;2023-05-10T08:04:50;1.90;;;1.43;;
8594;SDS011;4335;48.860;9.198;2023-05-10T08:07:18;2.17;;;1.20;;
8594;SDS011;4335;48.860;9.198;2023-05-10T08:09:48;1.77;;;1.13;;
8594;SDS011;4335;48.860;9.198;2023-05-10T08:12:17;1.80;;;1.50;;
8594;SDS011;4335;48.860;9.198;2023-05-10T08:14:44;1.43;;;1.30;;
8594;SDS011;4335;48.860;9.198;2023-05-10T08:17:12;3.40;;;1.20;;
8594;SDS011;4335;48.860;9.198;2023-05-10T08:19:52;1.70;;;1.30;;
8594;SDS011;4335;48.860;9.198;2023-05-10T08:22:26;1.20;;;1.10;;
8594;SDS011;4335;48.860;9.198;2023-05-10T08:24:53;1.20;;;1.10;;
8594;SDS011;4335;48.860;9.198;2023-05-10T08:27:27;2.80;;;1.77;;
8594;SDS011;4335;48.860;9.198;2023-05-10T08:29:55;3.10;;;1.50;;
8594;SDS011;4335;48.860;9.198;2023-05-10T08:32:22;1.07;;;0.97;;
8594;SDS011;4335;48.860;9.198;2023-05-10T08:34:50;1.40;;;1.27;;
8594;SDS011;4335;48.860;9.198;2023-05-10T08:37:23;1.30;;;1.20;;
8594;SDS011;4335;48.860;9.198;2023-05-10T08:39:51;3.70;;;1.10;;
8594;SDS011;4335;48.860;9.198;2023-05-10T08:42:25;1.57;;;0.90;;
8594;SDS011;4335;48.860;9.198;2023-05-10T08:44:57;0.90;;;0.90;;
8594;SDS011;4335;48.860;9.198;2023-05-10T08:47:25;1.23;;;1.07;;
8594;SDS011;4335;48.860;9.198;2023-05-10T08:49:53;2.17;;;1.40;;
8594;SDS011;4335;48.860;9.198;2023-05-10T08:52:24;2.40;;;1.10;;
8594;SDS011;4335;48.860;9.198;2023-05-10T08:54:57;4.03;;;1.40;;
8594;SDS011;4335;48.860;9.198;2023-05-10T08:57:30;3.87;;;2.87;;
8594;SDS011;4335;48.860;9.198;2023-05-10T08:59:57;1.47;;;1.07;;
8594;SDS011;4335;48.860;9.198;2023-05-10T09:02:27;1.07;;;0.80;;
8594;SDS011;4335;48.860;9.198;2023-05-10T09:04:58;0.97;;;0.90;;
8594;SDS011;4335;48.860;9.198;2023-05-10T09:07:26;2.30;;;1.23;;
8594;SDS011;4335;48.860;9.198;2023-05-10T09:09:54;2.30;;;0.90;;
8594;SDS011;4335;48.860;9.198;2023-05-10T09:12:35;2.40;;;0.80;;
8594;SDS011;4335;48.860;9.198;2023-05-10T09:15:06;1.03;;;1.00;;
8594;SDS011;4335;48.860;9.198;2023-05-10T09:17:36;2.13;;;0.90;;
8594;SDS011;4335;48.860;9.198;2023-05-10T09:20:05;1.20;;;1.10;;
8594;SDS011;4335;48.860;9.198;2023-05-10T09:22:36;2.67;;;0.80;;
8594;SDS011;4335;48.860;9.198;2023-05-10T09:25:07;1.10;;;1.00;;
8594;SDS011;4335;48.860;9.198;2023-05-10T09:27:39;1.23;;;1.00;;
8594;SDS011;4335;48.860;9.198;2023-05-10T09:33:05;1.43;;;1.33;;
8594;SDS011;4335;48.860;9.198;2023-05-10T09:35:33;1.77;;;1.00;;
8594;SDS011;4335;48.860;9.198;2023-05-10T09:38:04;0.97;;;0.90;;
8594;SDS011;4335;48.860;9.198;2023-05-10T09:40:35;0.87;;;0.80;;
8594;SDS011;4335;48.860;9.198;2023-05-10T09:43:04;1.07;;;0.90;;
8594;SDS011;4335;48.860;9.198;2023-05-10T09:45:36;1.00;;;0.70;;
8594;SDS011;4335;48.860;9.198;2023-05-10T09:48:06;1.70;;;1.57;;
8594;SDS011;4335;48.860;9.198;2023-05-10T09:50:33;2.07;;;1.40;;
8594;SDS011;4335;48.860;9.198;2023-05-10T09:53:02;1.60;;;1.00;;
8594;SDS011;4335;48.860;9.198;2023-05-10T09:55:38;1.80;;;1.00;;
8594;SDS011;4335;48.860;9.198;2023-05-10T09:58:10;1.77;;;0.70;;
8594;SDS011;4335;48.860;9.198;2023-05-10T10:00:40;1.20;;;0.90;;
8594;SDS011;4335;48.860;9.198;2023-05-10T10:03:16;1.10;;;1.00;;
8594;SDS011;4335;48.860;9.198;2023-05-10T10:05:47;3.40;;;1.17;;
8594;SDS011;4335;48.860;9.198;2023-05-10T10:08:15;2.33;;;1.63;;
8594;SDS011;4335;48.860;9.198;2023-05-10T10:10:43;1.13;;;1.00;;
8594;SDS011;4335;48.860;9.198;2023-05-10T10:13:15;1.10;;;1.00;;
8594;SDS011;4335;48.860;9.198;2023-05-10T10:15:43;1.00;;;0.90;;
8594;SDS011;4335;48.860;9.198;2023-05-10T10:18:12;2.50;;;1.13;;
8594;SDS011;4335;48.860;9.198;2023-05-10T10:20:40;1.10;;;1.00;;
8594;SDS011;4335;48.860;9.198;2023-05-10T10:23:08;2.07;;;1.20;;
8594;SDS011;4335;48.860;9.198;2023-05-10T10:25:35;1.23;;;0.90;;
8594;SDS011;4335;48.860;9.198;2023-05-10T10:28:13;1.37;;;1.10;;
8594;SDS011;4335;48.860;9.198;2023-05-10T10:30:50;1.77;;;0.93;;
8594;SDS011;4335;48.860;9.198;2023-05-10T10:36:21;1.67;;;1.43;;
8594;SDS011;4335;48.860;9.198;2023-05-10T10:38:54;2.13;;;1.90;;
8594;SDS011;4335;48.860;9.198;2023-05-10T10:41:34;1.10;;;1.00;;
8594;SDS011;4335;48.860;9.198;2023-05-10T10:50:04;1.17;;;1.00;;
8594;SDS011;4335;48.860;9.198;2023-05-10T10:52:33;3.07;;;1.40;;
8594;SDS011;4335;48.860;9.198;2023-05-10T10:55:04;2.13;;;1.50;;
8594;SDS011;4335;48.860;9.198;2023-05-10T10:57:35;1.50;;;1.00;;
8594;SDS011;4335;48.860;9.198;2023-05-10T11:03:11;0.90;;;0.90;;
8594;SDS011;4335;48.860;9.198;2023-05-10T11:05:45;0.80;;;0.80;;
8594;SDS011;4335;48.860;9.198;2023-05-10T11:08:17;1.30;;;1.20;;
8594;SDS011;4335;48.860;9.198;2023-05-10T11:10:51;2.93;;;1.10;;
8594;SDS011;4335;48.860;9.198;2023-05-10T11:13:29;1.03;;;0.93;;
8594;SDS011;4335;48.860;9.198;2023-05-10T11:18:52;1.70;;;1.20;;
8594;SDS011;4335;48.860;9.198;2023-05-10T11:21:23;1.40;;;1.30;;
8594;SDS011;4335;48.860;9.198;2023-05-10T11:23:51;3.17;;;1.40;;
8594;SDS011;4335;48.860;9.198;2023-05-10T11:26:21;1.60;;;1.40;;
8594;SDS011;4335;48.860;9.198;2023-05-10T11:28:51;2.57;;;1.40;;
8594;SDS011;4335;48.860;9.198;2023-05-10T11:31:22;2.40;;;1.30;;
8594;SDS011;4335;48.860;9.198;2023-05-10T11:33:52;1.30;;;1.00;;
8594;SDS011;4335;48.860;9.198;2023-05-10T11:36:21;3.27;;;2.03;;
8594;SDS011;4335;48.860;9.198;2023-05-10T11:38:51;3.53;;;2.10;;
8594;SDS011;4335;48.860;9.198;2023-05-10T11:41:19;2.57;;;1.60;;
8594;SDS011;4335;48.860;9.198;2023-05-10T11:43:50;2.30;;;1.50;;
8594;SDS011;4335;48.860;9.198;2023-05-10T11:46:18;1.40;;;1.10;;
8594;SDS011;4335;48.860;9.198;2023-05-10T11:48:49;1.87;;;1.20;;
8594;SDS011;4335;48.860;9.198;2023-05-10T11:51:19;1.33;;;1.23;;
8594;SDS011;4335;48.860;9.198;2023-05-10T11:53:52;2.40;;;1.60;;
8594;SDS011;4335;48.860;9.198;2023-05-10T11:56:21;1.87;;;1.30;;
8594;SDS011;4335;48.860;9.198;2023-05-10T11:58:55;1.70;;;1.50;;
8594;SDS011;4335;48.860;9.198;2023-05-10T12:01:23;2.73;;;1.50;;
8594;SDS011;4335;48.860;9.198;2023-05-10T12:03:53;2.00;;;1.60;;
8594;SDS011;4335;48.860;9.198;2023-05-10T12:06:25;1.40;;;1.30;;
8594;SDS011;4335;48.860;9.198;2023-05-10T12:09:05;1.37;;;1.23;;
8594;SDS011;4335;48.860;9.198;2023-05-10T12:11:36;5.07;;;1.60;;
8594;SDS011;4335;48.860;9.198;2023-05-10T12:14:05;2.20;;;1.37;;
8594;SDS011;4335;48.860;9.198;2023-05-10T12:16:36;3.83;;;1.50;;
8594;SDS011;4335;48.860;9.198;2023-05-10T12:19:07;2.23;;;1.30;;
8594;SDS011;4335;48.860;9.198;2023-05-10T12:21:34;1.97;;;1.77;;
8594;SDS011;4335;48.860;9.198;2023-05-10T12:24:06;2.17;;;1.37;;
8594;SDS011;4335;48.860;9.198;2023-05-10T12:26:35;2.30;;;1.40;;
8594;SDS011;4335;48.860;9.198;2023-05-10T12:29:12;1.87;;;1.10;;
8594;SDS011;4335;48.860;9.198;2023-05-10T12:31:51;2.10;;;1.00;;
8594;SDS011;4335;48.860;9.198;2023-05-10T12:34:25;2.07;;;1.00;;
8594;SDS011;4335;48.860;9.198;2023-05-10T12:36:53;3.20;;;1.43;;
8594;SDS011;4335;48.860;9.198;2023-05-10T12:39:20;2.10;;;1.17;;
8594;SDS011;4335;48.860;9.198;2023-05-10T12:41:47;2.80;;;1.10;;
8594;SDS011;4335;48.860;9.198;2023-05-10T12:44:15;2.03;;;1.10;;
8594;SDS011;4335;48.860;9.198;2023-05-10T12:46:42;4.33;;;1.40;;
8594;SDS011;4335;48.860;9.198;2023-05-10T12:49:13;2.57;;;1.00;;
8594;SDS011;4335;48.860;9.198;2023-05-10T12:51:41;3.07;;;1.27;;
8594;SDS011;4335;48.860;9.198;2023-05-10T12:54:12;1.90;;;1.33;;
8594;SDS011;4335;48.860;9.198;2023-05-10T12:56:39;2.90;;;1.20;;
8594;SDS011;4335;48.860;9.198;2023-05-10T12:59:10;1.83;;;1.13;;
8594;SDS011;4335;48.860;9.198;2023-05-10T13:01:38;1.97;;;1.43;;
8594;SDS011;4335;48.860;9.198;2023-05-10T13:04:08;1.63;;;1.03;;
8594;SDS011;4335;48.860;9.198;2023-05-10T13:06:35;4.30;;;1.00;;
8594;SDS011;4335;48.860;9.198;2023-05-10T13:09:04;4.73;;;1.50;;
8594;SDS011;4335;48.860;9.198;2023-05-10T13:11:32;3.17;;;1.47;;
8594;SDS011;4335;48.860;9.198;2023-05-10T13:13:59;1.70;;;1.20;;
8594;SDS011;4335;48.860;9.198;2023-05-10T13:16:28;1.23;;;1.13;;
8594;SDS011;4335;48.860;9.198;2023-05-10T13:18:55;1.40;;;1.00;;
8594;SDS011;4335;48.860;9.198;2023-05-10T13:21:26;2.30;;;1.17;;
8594;SDS011;4335;48.860;9.198;2023-05-10T13:23:53;1.63;;;1.10;;
8594;SDS011;4335;48.860;9.198;2023-05-10T13:26:22;1.30;;;1.20;;
8594;SDS011;4335;48.860;9.198;2023-05-10T13:28:50;2.53;;;1.27;;
8594;SDS011;4335;48.860;9.198;2023-05-10T13:31:18;1.77;;;1.17;;
8594;SDS011;4335;48.860;9.198;2023-05-10T13:33:48;1.33;;;1.07;;
8594;SDS011;4335;48.860;9.198;2023-05-10T13:36:31;2.50;;;1.33;;
8594;SDS011;4335;48.860;9.198;2023-05-10T13:38:58;1.33;;;1.00;;
8594;SDS011;4335;48.860;9.198;2023-05-10T13:41:30;1.20;;;0.87;;
8594;SDS011;4335;48.860;9.198;2023-05-10T13:44:06;1.80;;;1.23;;
8594;SDS011;4335;48.860;9.198;2023-05-10T13:46:38;3.20;;;1.37;;
8594;SDS011;4335;48.860;9.198;2023-05-10T13:49:06;2.87;;;1.73;;
8594;SDS011;4335;48.860;9.198;2023-05-10T13:51:36;2.30;;;0.97;;
8594;SDS011;4335;48.860;9.198;2023-05-10T13:54:03;2.30;;;1.20;;
8594;SDS011;4335;48.860;9.198;2023-05-10T13:56:35;1.33;;;1.00;;
8594;SDS011;4335;48.860;9.198;2023-05-10T13:59:02;2.37;;;1.10;;
8594;SDS011;4335;48.860;9.198;2023-05-10T14:01:33;1.77;;;1.00;;
8594;SDS011;4335;48.860;9.198;2023-05-10T14:04:00;1.73;;;1.60;;
8594;SDS011;4335;48.860;9.198;2023-05-10T14:06:30;3.33;;;1.37;;
8594;SDS011;4335;48.860;9.198;2023-05-10T14:09:05;1.70;;;1.10;;
8594;SDS011;4335;48.860;9.198;2023-05-10T14:11:37;2.23;;;1.20;;
8594;SDS011;4335;48.860;9.198;2023-05-10T14:14:08;2.20;;;1.47;;
8594;SDS011;4335;48.860;9.198;2023-05-10T14:16:41;1.90;;;1.50;;
8594;SDS011;4335;48.860;9.198;2023-05-10T14:19:09;1.37;;;1.17;;
8594;SDS011;4335;48.860;9.198;2023-05-10T14:21:39;2.43;;;1.23;;
8594;SDS011;4335;48.860;9.198;2023-05-10T14:24:07;2.07;;;1.20;;
8594;SDS011;4335;48.860;9.198;2023-05-10T14:26:41;2.80;;;1.20;;
8594;SDS011;4335;48.860;9.198;2023-05-10T14:29:08;1.53;;;1.03;;
8594;SDS011;4335;48.860;9.198;2023-05-10T14:31:36;3.47;;;1.17;;
8594;SDS011;4335;48.860;9.198;2023-05-10T14:34:03;2.27;;;1.40;;
8594;SDS011;4335;48.860;9.198;2023-05-10T14:36:31;3.27;;;1.67;;
8594;SDS011;4335;48.860;9.198;2023-05-10T14:38:58;2.20;;;1.10;;
8594;SDS011;4335;48.860;9.198;2023-05-10T14:41:26;1.73;;;1.10;;
8594;SDS011;4335;48.860;9.198;2023-05-10T14:43:58;1.97;;;1.27;;
8594;SDS011;4335;48.860;9.198;2023-05-10T14:46:25;1.93;;;1.20;;
8594;SDS011;4335;48.860;9.198;2023-05-10T14:48:52;1.37;;;1.17;;
8594;SDS011;4335;48.860;9.198;2023-05-10T14:51:23;1.57;;;1.17;;
8594;SDS011;4335;48.860;9.198;2023-05-10T14:53:50;1.00;;;1.00;;
8594;SDS011;4335;48.860;9.198;2023-05-10T14:56:17;1.20;;;1.10;;
8594;SDS011;4335;48.860;9.198;2023-05-10T14:58:49;1.63;;;0.90;;
8594;SDS011;4335;48.860;9.198;2023-05-10T15:01:21;2.17;;;1.33;;
8594;SDS011;4335;48.860;9.198;2023-05-10T15:03:49;1.57;;;1.00;;
8594;SDS011;4335;48.860;9.198;2023-05-10T15:06:29;1.30;;;1.00;;
8594;SDS011;4335;48.860;9.198;2023-05-10T15:08:57;2.27;;;1.27;;
8594;SDS011;4335;48.860;9.198;2023-05-10T15:11:25;2.20;;;1.20;;
8594;SDS011;4335;48.860;9.198;2023-05-10T15:13:55;2.13;;;1.60;;
8594;SDS011;4335;48.860;9.198;2023-05-10T15:16:34;2.07;;;1.43;;
8594;SDS011;4335;48.860;9.198;2023-05-10T15:19:01;3.33;;;1.30;;
8594;SDS011;4335;48.860;9.198;2023-05-10T15:21:31;1.20;;;1.00;;
8594;SDS011;4335;48.860;9.198;2023-05-10T15:24:04;3.33;;;1.17;;
8594;SDS011;4335;48.860;9.198;2023-05-10T15:26:37;1.60;;;1.00;;
8594;SDS011;4335;48.860;9.198;2023-05-10T15:29:05;2.30;;;1.37;;
8594;SDS011;4335;48.860;9.198;2023-05-10T15:31:40;1.33;;;1.20;;
8594;SDS011;4335;48.860;9.198;2023-05-10T15:34:07;2.57;;;1.00;;
8594;SDS011;4335;48.860;9.198;2023-05-10T15:36:38;1.97;;;1.07;;
8594;SDS011;4335;48.860;9.198;2023-05-10T15:39:05;3.63;;;1.43;;
8594;SDS011;4335;48.860;9.198;2023-05-10T15:41:34;3.43;;;2.30;;
8594;SDS011;4335;48.860;9.198;2023-05-10T15:44:01;2.33;;;1.30;;
8594;SDS011;4335;48.860;9.198;2023-05-10T15:46:30;1.80;;;1.47;;
8594;SDS011;4335;48.860;9.198;2023-05-10T15:48:59;2.73;;;1.40;;
8594;SDS011;4335;48.860;9.198;2023-05-10T15:51:26;2.03;;;1.43;;
8594;SDS011;4335;48.860;9.198;2023-05-10T15:53:54;1.60;;;1.40;;
8594;SDS011;4335;48.860;9.198;2023-05-10T15:56:21;1.80;;;1.10;;
8594;SDS011;4335;48.860;9.198;2023-05-10T15:58:48;2.80;;;1.03;;
8594;SDS011;4335;48.860;9.198;2023-05-10T16:01:19;2.07;;;1.13;;
8594;SDS011;4335;48.860;9.198;2023-05-10T16:03:46;1.43;;;1.33;;